Time;durP1;ratioP1;P1;durP2;ratioP2;P2;SDS_P1;SDS_P2;PMS_P1;PMS_P2;Temp;Humidity;BMP_temperature;BMP_pressure;BME280_temperature;BME280_humidity;BME280_pressure;Samples;Min_cycle;Max_cycle;Signal;HPM_P1;HPM_P2
2022/09/07 00:00:41;;;;;;;;;;;20.20;99.90;;;;;;5042303;28;19909;-73
2022/09/07 00:03:07;;;;;;;;;;;20.20;99.90;;;;;;5056042;28;20008;-73
2022/09/07 00:05:33;;;;;;;;;;;20.20;99.90;;;;;;5055438;28;19913;-73
2022/09/07 00:07:58;;;;;;;;;;;20.20;99.90;;;;;;5055113;28;19909;-73
2022/09/07 00:10:24;;;;;;;;;;;20.20;99.90;;;;;;5054934;28;19909;-83
2022/09/07 00:12:50;;;;;;;;;;;20.20;99.90;;;;;;5053634;28;19909;-81
2022/09/07 00:15:16;;;;;;;;;;;20.10;99.90;;;;;;5054573;28;19909;-73
2022/09/07 00:17:42;;;;;;;;;;;20.10;99.90;;;;;;5054951;28;19931;-83
2022/09/07 00:20:08;;;;;;;;;;;20.10;99.90;;;;;;5054088;28;20003;-73
2022/09/07 00:22:34;;;;;;;;;;;20.10;99.90;;;;;;5054404;28;19913;-82
2022/09/07 00:25:00;;;;;;;;;;;20.10;99.90;;;;;;5055211;28;19959;-83
2022/09/07 00:27:25;;;;;;;;;;;20.10;99.90;;;;;;5055833;28;19912;-83
2022/09/07 00:29:51;;;;;;;;;;;20.10;99.90;;;;;;5054634;28;20353;-73
2022/09/07 00:32:17;;;;;;;;;;;20.20;99.90;;;;;;5049083;28;20434;-83
2022/09/07 00:34:42;;;;;;;;;;;20.20;99.90;;;;;;5034788;28;19924;-73
2022/09/07 00:37:08;;;;;;;;;;;20.20;99.90;;;;;;5034737;28;19916;-82
2022/09/07 00:39:33;;;;;;;;;;;20.20;99.90;;;;;;5048194;28;19995;-73
2022/09/07 00:41:59;;;;;;;;;;;20.30;99.90;;;;;;5048544;28;19909;-73
2022/09/07 00:44:55;;;;;;;;;;;20.30;99.90;;;;;;5044522;28;19913;-73
2022/09/07 00:47:21;;;;;;;;;;;20.20;99.90;;;;;;5047615;28;19934;-83
2022/09/07 00:49:50;;;;;;;;;;;20.20;99.90;;;;;;5050367;28;20273;-83
2022/09/07 00:52:16;;;;;;;;;;;20.20;99.90;;;;;;5054421;28;19916;-83
2022/09/07 00:54:44;;;;;;;;;;;20.20;99.90;;;;;;5054389;28;19913;-73
2022/09/07 00:57:10;;;;;;;;;;;20.20;99.90;;;;;;5054679;28;19908;-82
2022/09/07 00:59:38;;;;;;;;;;;20.20;99.90;;;;;;5050768;28;19959;-78
2022/09/07 01:02:04;;;;;;;;;;;20.20;99.90;;;;;;5046785;28;20003;-83
2022/09/07 01:04:31;;;;;;;;;;;20.20;99.90;;;;;;5054392;28;19931;-73
2022/09/07 01:06:56;;;;;;;;;;;20.20;99.90;;;;;;5054243;28;19913;-73
2022/09/07 01:09:23;;;;;;;;;;;20.20;99.90;;;;;;5053971;28;19939;-73
2022/09/07 01:11:52;;;;;;;;;;;20.20;99.90;;;;;;5053858;28;20404;-83
2022/09/07 01:14:21;;;;;;;;;;;20.20;99.90;;;;;;5054023;28;20299;-73
2022/09/07 01:17:02;;;;;;;;;;;20.30;99.90;;;;;;5054067;28;19916;-73
2022/09/07 01:19:39;;;;;;;;;;;20.30;99.90;;;;;;5052902;28;19909;-73
2022/09/07 01:22:08;;;;;;;;;;;20.30;99.90;;;;;;5053760;28;20380;-73
2022/09/07 01:24:36;;;;;;;;;;;20.30;99.90;;;;;;5053637;28;19916;-83
2022/09/07 01:27:20;;;;;;;;;;;20.30;99.90;;;;;;5055966;28;20333;-82
2022/09/07 01:29:54;;;;;;;;;;;20.30;99.90;;;;;;5053746;28;19954;-82
2022/09/07 01:32:23;;;;;;;;;;;20.40;99.90;;;;;;5047944;28;19967;-73
2022/09/07 01:34:51;;;;;;;;;;;20.40;99.90;;;;;;5033778;28;19916;-73
2022/09/07 01:37:25;;;;;;;;;;;20.40;99.90;;;;;;5065384;28;20478;-82
2022/09/07 01:39:51;;;;;;;;;;;20.40;99.90;;;;;;5049429;28;19999;-81
2022/09/07 01:42:19;;;;;;;;;;;20.40;99.90;;;;;;5046091;28;20356;-73
2022/09/07 01:44:47;;;;;;;;;;;20.50;99.90;;;;;;5047602;28;19958;-73
2022/09/07 01:47:12;;;;;;;;;;;20.40;99.90;;;;;;5056469;28;19962;-73
2022/09/07 01:49:41;;;;;;;;;;;20.50;99.90;;;;;;5050520;28;20356;-83
2022/09/07 01:52:11;;;;;;;;;;;20.50;99.90;;;;;;5054127;28;19966;-82
2022/09/07 01:54:49;;;;;;;;;;;20.50;99.90;;;;;;5053592;28;19913;-82
2022/09/07 01:57:19;;;;;;;;;;;20.50;99.90;;;;;;5053735;28;19959;-72
2022/09/07 02:00:07;;;;;;;;;;;20.50;99.90;;;;;;5048195;28;19955;-73
2022/09/07 02:02:38;;;;;;;;;;;20.50;99.90;;;;;;5050001;28;19909;-83
2022/09/07 02:05:08;;;;;;;;;;;20.50;99.90;;;;;;5053903;28;20371;-83
2022/09/07 02:07:38;;;;;;;;;;;20.50;99.90;;;;;;5053184;28;19916;-72
2022/09/07 02:10:07;;;;;;;;;;;20.50;99.90;;;;;;5053093;28;19913;-72
2022/09/07 02:12:36;;;;;;;;;;;20.50;99.90;;;;;;5053063;28;19966;-72
2022/09/07 02:15:04;;;;;;;;;;;20.40;99.90;;;;;;5052798;28;19952;-73
2022/09/07 02:17:34;;;;;;;;;;;20.20;99.90;;;;;;5053346;28;19951;-73
2022/09/07 02:20:10;;;;;;;;;;;20.10;99.90;;;;;;5052358;28;20322;-83
2022/09/07 02:22:38;;;;;;;;;;;20.00;99.90;;;;;;5052829;28;19959;-83
2022/09/07 02:25:04;;;;;;;;;;;19.90;99.90;;;;;;5052428;28;20372;-73
2022/09/07 02:27:38;;;;;;;;;;;19.90;99.90;;;;;;5033421;28;19913;-83
2022/09/07 02:30:03;;;;;;;;;;;19.90;99.90;;;;;;5033037;28;19909;-83
2022/09/07 02:32:29;;;;;;;;;;;19.90;99.90;;;;;;5041099;28;19921;-73
2022/09/07 02:34:54;;;;;;;;;;;19.90;99.90;;;;;;5053084;28;19916;-73
2022/09/07 02:37:20;;;;;;;;;;;19.80;99.90;;;;;;5051569;28;19913;-73
2022/09/07 02:39:48;;;;;;;;;;;19.80;99.90;;;;;;5056470;28;20241;-72
2022/09/07 02:42:13;;;;;;;;;;;19.80;99.90;;;;;;5049385;28;19941;-83
2022/09/07 02:44:39;;;;;;;;;;;19.80;99.90;;;;;;5047525;28;19916;-83
2022/09/07 02:47:24;;;;;;;;;;;19.90;99.90;;;;;;5058439;28;20368;-73
2022/09/07 02:49:50;;;;;;;;;;;19.90;99.90;;;;;;5058034;28;20388;-82
2022/09/07 02:52:18;;;;;;;;;;;19.90;99.90;;;;;;5046026;28;20368;-72
2022/09/07 02:54:52;;;;;;;;;;;19.90;99.90;;;;;;5054343;28;19916;-73
2022/09/07 02:57:36;;;;;;;;;;;19.90;99.90;;;;;;5056606;28;19916;-73
2022/09/07 03:00:05;;;;;;;;;;;19.90;99.90;;;;;;5046924;28;20352;-82
2022/09/07 03:02:40;;;;;;;;;;;20.00;99.90;;;;;;5097575;28;19916;-72
2022/09/07 03:05:20;;;;;;;;;;;20.10;99.90;;;;;;5055885;28;19996;-72
2022/09/07 03:07:49;;;;;;;;;;;20.20;99.90;;;;;;5055752;28;19920;-81
2022/09/07 03:10:16;;;;;;;;;;;20.30;99.90;;;;;;5056326;28;19909;-83
2022/09/07 03:12:46;;;;;;;;;;;20.30;99.90;;;;;;5056203;28;19909;-82
2022/09/07 03:15:19;;;;;;;;;;;20.40;99.90;;;;;;5055957;28;20391;-81
2022/09/07 03:17:45;;;;;;;;;;;20.30;99.90;;;;;;5056408;28;19909;-72
2022/09/07 03:20:11;;;;;;;;;;;20.30;99.90;;;;;;5055859;28;19909;-83
2022/09/07 03:22:37;;;;;;;;;;;20.20;99.90;;;;;;5054835;28;19909;-73
2022/09/07 03:25:03;;;;;;;;;;;20.20;99.90;;;;;;5057983;28;19919;-72
2022/09/07 03:27:30;;;;;;;;;;;20.10;99.90;;;;;;5057206;28;20006;-83
2022/09/07 03:29:56;;;;;;;;;;;20.10;99.90;;;;;;5055800;28;19920;-73
2022/09/07 03:32:21;;;;;;;;;;;20.00;99.90;;;;;;5049964;28;19921;-83
2022/09/07 03:34:47;;;;;;;;;;;19.90;99.90;;;;;;5035748;28;19963;-83
2022/09/07 03:37:13;;;;;;;;;;;19.90;99.90;;;;;;5035746;28;19917;-73
2022/09/07 03:39:38;;;;;;;;;;;19.90;99.90;;;;;;5050098;28;19962;-82
2022/09/07 03:42:04;;;;;;;;;;;19.80;99.90;;;;;;5050781;28;20369;-72
2022/09/07 03:44:29;;;;;;;;;;;19.90;99.90;;;;;;5046794;28;19908;-72
2022/09/07 03:46:55;;;;;;;;;;;19.80;99.90;;;;;;5057157;28;19916;-82
2022/09/07 03:49:20;;;;;;;;;;;19.80;99.90;;;;;;5062510;28;19988;-82
2022/09/07 03:51:46;;;;;;;;;;;19.90;99.90;;;;;;5054307;28;19913;-81
2022/09/07 03:54:11;;;;;;;;;;;19.80;99.90;;;;;;5055698;28;19962;-73
2022/09/07 03:56:37;;;;;;;;;;;19.90;99.90;;;;;;5055702;28;19908;-73
2022/09/07 03:59:02;;;;;;;;;;;19.90;99.90;;;;;;5055125;28;20402;-82
2022/09/07 04:01:28;;;;;;;;;;;20.00;99.90;;;;;;5044964;28;20007;-82
2022/09/07 04:03:56;;;;;;;;;;;20.00;99.90;;;;;;5055222;28;19988;-73
2022/09/07 04:06:22;;;;;;;;;;;20.00;99.90;;;;;;5055156;28;20392;-84
2022/09/07 04:08:47;;;;;;;;;;;20.00;99.90;;;;;;5055269;28;19909;-73
2022/09/07 04:11:14;;;;;;;;;;;20.00;99.90;;;;;;5054285;28;19917;-82
2022/09/07 04:13:40;;;;;;;;;;;20.00;99.90;;;;;;5055062;28;19913;-82
2022/09/07 04:16:16;;;;;;;;;;;20.00;99.90;;;;;;5054697;28;19913;-72
2022/09/07 04:18:42;;;;;;;;;;;20.00;99.90;;;;;;5053899;28;19912;-81
2022/09/07 04:21:08;;;;;;;;;;;20.00;99.90;;;;;;5054744;28;19955;-73
2022/09/07 04:23:35;;;;;;;;;;;20.10;99.90;;;;;;5053869;28;19912;-72
2022/09/07 04:26:01;;;;;;;;;;;20.10;99.90;;;;;;5057553;28;19913;-73
2022/09/07 04:28:27;;;;;;;;;;;20.10;99.90;;;;;;5054806;28;19915;-81
2022/09/07 04:30:52;;;;;;;;;;;20.10;99.90;;;;;;5047400;28;20387;-82
2022/09/07 04:33:18;;;;;;;;;;;20.10;99.90;;;;;;5035741;28;20387;-73
2022/09/07 04:35:44;;;;;;;;;;;20.10;99.90;;;;;;5033064;28;19913;-72
2022/09/07 04:38:13;;;;;;;;;;;20.10;99.90;;;;;;5036894;28;19909;-82
2022/09/07 04:40:38;;;;;;;;;;;20.10;99.90;;;;;;5041882;28;19944;-82
2022/09/07 04:43:04;;;;;;;;;;;20.10;99.90;;;;;;5041488;28;20026;-81
2022/09/07 04:45:30;;;;;;;;;;;20.20;99.90;;;;;;5055125;28;19923;-82
2022/09/07 04:47:55;;;;;;;;;;;20.20;99.90;;;;;;5063014;28;19919;-73
2022/09/07 04:50:22;;;;;;;;;;;20.10;99.90;;;;;;5052590;28;19963;-82
2022/09/07 04:52:48;;;;;;;;;;;20.10;99.90;;;;;;5054888;28;19978;-81
2022/09/07 04:55:13;;;;;;;;;;;20.20;99.90;;;;;;5052990;28;20367;-78
2022/09/07 04:57:39;;;;;;;;;;;20.30;99.90;;;;;;5053927;28;20360;-81
2022/09/07 05:00:11;;;;;;;;;;;20.30;99.90;;;;;;5046911;28;19916;-72
2022/09/07 05:02:37;;;;;;;;;;;20.30;99.90;;;;;;5050428;28;20306;-72
2022/09/07 05:05:03;;;;;;;;;;;20.30;99.90;;;;;;5054067;28;19959;-81
2022/09/07 05:07:29;;;;;;;;;;;20.30;99.90;;;;;;5053906;28;19966;-82
2022/09/07 05:09:55;;;;;;;;;;;20.30;99.90;;;;;;5053693;28;19909;-72
2022/09/07 05:12:21;;;;;;;;;;;20.30;99.90;;;;;;5053605;28;19920;-72
2022/09/07 05:14:46;;;;;;;;;;;20.30;99.90;;;;;;5053751;28;19908;-72
2022/09/07 05:17:12;;;;;;;;;;;20.30;99.90;;;;;;5053817;28;20032;-82
2022/09/07 05:19:37;;;;;;;;;;;20.30;99.90;;;;;;5053631;28;20004;-82
2022/09/07 05:22:03;;;;;;;;;;;20.30;99.90;;;;;;5053665;28;19912;-72
2022/09/07 05:24:28;;;;;;;;;;;20.30;99.90;;;;;;5052938;28;20049;-82
2022/09/07 05:26:54;;;;;;;;;;;20.30;99.90;;;;;;5055709;28;19916;-72
2022/09/07 05:29:19;;;;;;;;;;;20.40;99.90;;;;;;5053816;28;19913;-82
2022/09/07 05:31:45;;;;;;;;;;;20.40;99.90;;;;;;5051425;28;19921;-72
2022/09/07 05:34:11;;;;;;;;;;;20.40;99.90;;;;;;5033562;28;19913;-83
2022/09/07 05:36:36;;;;;;;;;;;20.40;99.90;;;;;;5034452;28;19909;-82
2022/09/07 05:39:02;;;;;;;;;;;20.40;99.90;;;;;;5050385;28;20023;-72
2022/09/07 05:41:28;;;;;;;;;;;20.40;99.90;;;;;;5050359;28;19917;-73
2022/09/07 05:43:54;;;;;;;;;;;20.40;99.90;;;;;;5041257;28;19923;-81
2022/09/07 05:46:20;;;;;;;;;;;20.40;99.90;;;;;;5052185;28;19927;-80
2022/09/07 05:48:45;;;;;;;;;;;20.30;99.90;;;;;;5058711;28;19909;-81
2022/09/07 05:51:12;;;;;;;;;;;20.30;99.90;;;;;;5050219;28;19913;-73
2022/09/07 05:53:39;;;;;;;;;;;20.40;99.90;;;;;;5050687;28;19912;-73
2022/09/07 05:56:04;;;;;;;;;;;20.40;99.90;;;;;;5051826;28;19956;-81
2022/09/07 05:58:31;;;;;;;;;;;20.50;99.90;;;;;;5052967;28;20383;-81
2022/09/07 06:00:59;;;;;;;;;;;20.50;99.90;;;;;;5052760;28;19948;-80
2022/09/07 06:03:24;;;;;;;;;;;20.50;99.90;;;;;;5046491;28;19916;-80
2022/09/07 06:06:00;;;;;;;;;;;20.50;99.90;;;;;;5051929;28;19954;-73
2022/09/07 06:08:26;;;;;;;;;;;20.50;99.90;;;;;;5049486;28;19913;-81
2022/09/07 06:10:51;;;;;;;;;;;20.50;99.90;;;;;;5047937;28;19936;-80
2022/09/07 06:13:17;;;;;;;;;;;20.60;99.90;;;;;;5051666;28;19920;-73
2022/09/07 06:15:42;;;;;;;;;;;20.50;99.90;;;;;;5055517;28;20007;-82
2022/09/07 06:18:08;;;;;;;;;;;20.50;99.90;;;;;;5056373;28;19955;-73
2022/09/07 06:20:33;;;;;;;;;;;20.40;99.90;;;;;;5052326;28;20295;-73
2022/09/07 06:22:59;;;;;;;;;;;20.30;99.90;;;;;;5049033;28;20387;-73
2022/09/07 06:25:24;;;;;;;;;;;20.20;99.90;;;;;;5051527;28;19932;-81
2022/09/07 06:27:51;;;;;;;;;;;20.10;99.90;;;;;;5055787;28;20326;-80
2022/09/07 06:30:16;;;;;;;;;;;19.90;99.90;;;;;;5054727;28;19988;-72
2022/09/07 06:32:42;;;;;;;;;;;19.70;99.90;;;;;;5043708;28;19925;-71
2022/09/07 06:35:08;;;;;;;;;;;19.40;99.90;;;;;;5049570;28;19928;-72
2022/09/07 06:37:33;;;;;;;;;;;19.10;99.90;;;;;;5057043;28;19923;-80
2022/09/07 06:39:59;;;;;;;;;;;18.90;99.90;;;;;;5054174;28;19920;-81
2022/09/07 06:42:24;;;;;;;;;;;18.70;99.90;;;;;;5046698;28;19917;-79
2022/09/07 06:44:50;;;;;;;;;;;18.50;99.90;;;;;;5056560;28;20028;-77
2022/09/07 06:47:15;;;;;;;;;;;18.50;99.90;;;;;;5083372;28;19924;-74
2022/09/07 06:49:40;;;;;;;;;;;18.30;99.90;;;;;;5054570;28;20000;-79
2022/09/07 06:52:06;;;;;;;;;;;18.20;99.90;;;;;;5055894;28;20380;-78
2022/09/07 06:54:31;;;;;;;;;;;18.10;99.90;;;;;;5045802;28;19917;-78
2022/09/07 06:56:57;;;;;;;;;;;18.00;99.90;;;;;;5048930;28;19996;-79
2022/09/07 06:59:22;;;;;;;;;;;17.90;99.90;;;;;;5054476;28;19967;-73
2022/09/07 07:01:48;;;;;;;;;;;17.80;99.90;;;;;;5048392;28;19921;-79
2022/09/07 07:04:14;;;;;;;;;;;17.70;99.90;;;;;;5042370;28;19916;-78
2022/09/07 07:06:40;;;;;;;;;;;17.70;99.90;;;;;;5052422;28;19975;-78
2022/09/07 07:09:07;;;;;;;;;;;17.70;99.90;;;;;;5051565;28;19913;-81
2022/09/07 07:11:32;;;;;;;;;;;17.60;99.90;;;;;;5052167;28;19913;-74
2022/09/07 07:13:58;;;;;;;;;;;17.50;99.90;;;;;;5050786;28;19920;-74
2022/09/07 07:16:24;;;;;;;;;;;17.30;99.90;;;;;;5049482;28;19915;-79
2022/09/07 07:18:53;;;;;;;;;;;17.30;99.90;;;;;;5042998;28;19914;-78
2022/09/07 07:21:19;;;;;;;;;;;17.10;99.90;;;;;;5039628;28;19919;-78
2022/09/07 07:23:48;;;;;;;;;;;17.10;99.90;;;;;;5054614;28;19995;-73
2022/09/07 07:26:14;;;;;;;;;;;17.00;99.90;;;;;;5047442;28;19917;-80
2022/09/07 07:28:44;;;;;;;;;;;17.00;99.90;;;;;;5052564;28;19995;-79
2022/09/07 07:31:10;;;;;;;;;;;17.00;99.90;;;;;;5039623;28;19924;-74
2022/09/07 07:33:35;;;;;;;;;;;17.00;99.90;;;;;;5040156;28;19924;-79
2022/09/07 07:36:20;;;;;;;;;;;17.00;99.90;;;;;;5037849;28;20092;-73
2022/09/07 07:38:47;;;;;;;;;;;17.10;99.90;;;;;;5050760;28;19995;-74
2022/09/07 07:41:13;;;;;;;;;;;17.10;99.90;;;;;;5054030;28;19920;-80
2022/09/07 07:43:38;;;;;;;;;;;17.10;99.90;;;;;;5054714;28;20261;-81
2022/09/07 07:46:04;;;;;;;;;;;17.10;99.90;;;;;;5054786;28;19923;-82
2022/09/07 07:48:30;;;;;;;;;;;17.10;99.90;;;;;;5052833;28;20403;-73
2022/09/07 07:51:04;;;;;;;;;;;17.20;99.90;;;;;;5052905;28;19920;-80
2022/09/07 07:53:31;;;;;;;;;;;17.20;99.90;;;;;;5043619;28;19952;-73
2022/09/07 07:55:58;;;;;;;;;;;17.10;99.90;;;;;;5054814;28;20279;-81
2022/09/07 07:58:25;;;;;;;;;;;17.10;99.90;;;;;;5056093;28;20296;-80
2022/09/07 08:00:51;;;;;;;;;;;17.20;99.90;;;;;;5062328;28;19962;-80
2022/09/07 08:03:17;;;;;;;;;;;17.10;99.90;;;;;;5058984;28;19920;-74
2022/09/07 08:05:42;;;;;;;;;;;17.10;99.90;;;;;;5058006;28;19957;-84
2022/09/07 08:08:10;;;;;;;;;;;17.10;99.90;;;;;;5043866;28;19963;-84
2022/09/07 08:10:35;;;;;;;;;;;17.10;99.90;;;;;;5063778;28;19908;-84
2022/09/07 08:13:01;;;;;;;;;;;17.10;99.90;;;;;;5061059;28;19909;-86
2022/09/07 08:15:26;;;;;;;;;;;17.20;99.90;;;;;;5058739;28;19999;-74
2022/09/07 08:17:52;;;;;;;;;;;17.20;99.90;;;;;;5058566;28;19936;-75
2022/09/07 08:20:18;;;;;;;;;;;17.30;99.90;;;;;;5063567;28;19924;-88
2022/09/07 08:22:43;;;;;;;;;;;17.30;99.90;;;;;;5056877;28;20389;-88
2022/09/07 08:25:09;;;;;;;;;;;17.30;99.90;;;;;;5057374;28;20031;-88
2022/09/07 08:27:34;;;;;;;;;;;17.30;99.90;;;;;;5057859;28;19913;-76
2022/09/07 08:30:00;;;;;;;;;;;17.30;99.90;;;;;;5065705;28;19934;-76
2022/09/07 08:32:28;;;;;;;;;;;17.40;99.90;;;;;;5038429;28;19920;-87
2022/09/07 08:34:54;;;;;;;;;;;17.40;99.90;;;;;;5042813;28;19909;-85
2022/09/07 08:37:19;;;;;;;;;;;17.40;99.90;;;;;;5046013;28;19958;-76
2022/09/07 08:39:45;;;;;;;;;;;17.30;99.90;;;;;;5047403;28;20003;-84
2022/09/07 08:42:10;;;;;;;;;;;17.40;99.90;;;;;;5046770;28;19917;-76
2022/09/07 08:44:36;;;;;;;;;;;17.50;99.90;;;;;;5056653;28;19908;-77
2022/09/07 08:47:02;;;;;;;;;;;17.60;99.90;;;;;;5058848;28;19912;-87
2022/09/07 08:49:45;;;;;;;;;;;17.50;99.90;;;;;;5059263;28;19999;-74
2022/09/07 08:52:19;;;;;;;;;;;17.60;99.90;;;;;;5053988;28;19922;-90
2022/09/07 08:54:48;;;;;;;;;;;17.60;99.90;;;;;;5065542;28;19916;-77
2022/09/07 08:57:15;;;;;;;;;;;17.70;99.90;;;;;;5059121;28;19920;-89
2022/09/07 09:00:04;;;;;;;;;;;17.80;99.90;;;;;;5052825;28;20023;-89
2022/09/07 09:02:29;;;;;;;;;;;17.80;99.90;;;;;;5061054;28;20284;-86
2022/09/07 09:04:55;;;;;;;;;;;17.40;99.90;;;;;;5052364;28;19919;-84
2022/09/07 09:07:20;;;;;;;;;;;17.40;99.90;;;;;;5041767;28;19913;-74
2022/09/07 09:09:49;;;;;;;;;;;17.30;99.90;;;;;;5045822;28;19916;-73
2022/09/07 09:12:14;;;;;;;;;;;17.30;99.90;;;;;;5063705;28;19912;-84
2022/09/07 09:14:46;;;;;;;;;;;17.30;99.90;;;;;;5056627;28;19915;-87
2022/09/07 09:17:19;;;;;;;;;;;17.40;99.90;;;;;;5052938;28;20352;-73
2022/09/07 09:19:44;;;;;;;;;;;17.50;99.90;;;;;;5060628;28;20329;-73
2022/09/07 09:22:13;;;;;;;;;;;17.40;99.90;;;;;;5055841;28;19912;-73
2022/09/07 09:24:59;;;;;;;;;;;17.40;99.90;;;;;;5046734;28;19909;-86
2022/09/07 09:27:24;;;;;;;;;;;17.40;99.90;;;;;;5055415;28;20366;-86
2022/09/07 09:29:50;;;;;;;;;;;17.40;99.90;;;;;;5064432;28;19962;-73
2022/09/07 09:32:34;;;;;;;;;;;17.50;99.90;;;;;;5045582;28;19928;-74
2022/09/07 09:35:01;;;;;;;;;;;17.50;99.90;;;;;;5064749;28;19954;-73
2022/09/07 09:37:33;;;;;;;;;;;17.40;99.90;;;;;;5058404;28;19913;-74
2022/09/07 09:39:59;;;;;;;;;;;17.40;99.90;;;;;;5055813;28;20371;-85
2022/09/07 09:42:28;;;;;;;;;;;17.40;99.90;;;;;;5051821;28;19931;-86
2022/09/07 09:45:00;;;;;;;;;;;17.40;99.90;;;;;;5056417;28;19916;-73
2022/09/07 09:47:28;;;;;;;;;;;17.50;99.90;;;;;;5062206;28;19970;-73
2022/09/07 09:49:55;;;;;;;;;;;17.50;99.90;;;;;;5052846;28;20426;-74
2022/09/07 09:52:22;;;;;;;;;;;17.70;99.90;;;;;;5060945;28;19913;-75
2022/09/07 09:54:49;;;;;;;;;;;17.70;99.90;;;;;;5058623;28;19921;-75
2022/09/07 09:57:16;;;;;;;;;;;17.90;99.90;;;;;;5056565;28;19908;-87
2022/09/07 09:59:41;;;;;;;;;;;17.80;99.90;;;;;;5053724;28;20358;-74
2022/09/07 10:02:23;;;;;;;;;;;17.70;99.90;;;;;;5060688;28;19956;-74
2022/09/07 10:04:48;;;;;;;;;;;17.70;99.90;;;;;;5050146;28;19916;-87
2022/09/07 10:07:20;;;;;;;;;;;17.70;99.90;;;;;;5053622;28;19916;-88
2022/09/07 10:09:50;;;;;;;;;;;17.70;99.90;;;;;;5054306;28;19908;-75
2022/09/07 10:12:24;;;;;;;;;;;17.60;99.90;;;;;;5064362;28;19920;-76
2022/09/07 10:14:50;;;;;;;;;;;17.70;99.90;;;;;;5055926;28;19909;-75
2022/09/07 10:17:21;;;;;;;;;;;17.80;99.90;;;;;;5051434;28;19909;-90
2022/09/07 10:19:48;;;;;;;;;;;17.80;99.90;;;;;;5045051;28;19967;-87
2022/09/07 10:22:22;;;;;;;;;;;17.80;99.90;;;;;;5055049;28;19936;-80
2022/09/07 10:24:49;;;;;;;;;;;17.80;99.90;;;;;;5052679;28;19915;-75
2022/09/07 10:27:32;;;;;;;;;;;17.90;99.90;;;;;;5057406;28;19928;-75
2022/09/07 10:29:59;;;;;;;;;;;17.80;99.90;;;;;;5050860;28;19915;-77
2022/09/07 10:32:43;;;;;;;;;;;17.80;99.90;;;;;;5049188;28;20027;-76
2022/09/07 10:35:08;;;;;;;;;;;17.80;99.90;;;;;;5058643;28;19909;-91
2022/09/07 10:37:41;;;;;;;;;;;17.90;99.90;;;;;;5065247;28;19917;-77
2022/09/07 10:40:11;;;;;;;;;;;18.00;99.90;;;;;;5049439;28;19913;-76
2022/09/07 10:42:39;;;;;;;;;;;18.20;99.90;;;;;;5050799;28;19912;-91
2022/09/07 10:45:08;;;;;;;;;;;18.40;99.90;;;;;;5052280;28;19916;-77
2022/09/07 10:47:45;;;;;;;;;;;18.40;99.90;;;;;;5050524;28;19913;-88
2022/09/07 10:50:17;;;;;;;;;;;18.30;99.90;;;;;;5047428;28;20364;-90
2022/09/07 10:52:49;;;;;;;;;;;18.30;99.90;;;;;;5060739;28;19955;-89
2022/09/07 10:55:19;;;;;;;;;;;18.30;99.90;;;;;;5054944;28;19909;-88
2022/09/07 10:57:56;;;;;;;;;;;18.30;99.90;;;;;;5046018;28;19917;-83
2022/09/07 11:00:22;;;;;;;;;;;18.20;99.90;;;;;;5054533;28;19919;-86
2022/09/07 11:02:50;;;;;;;;;;;18.30;99.90;;;;;;5056931;28;20295;-86
2022/09/07 11:05:25;;;;;;;;;;;18.20;99.90;;;;;;5055864;28;19912;-74
2022/09/07 11:08:03;;;;;;;;;;;18.30;99.90;;;;;;5061621;28;20338;-84
2022/09/07 11:10:39;;;;;;;;;;;18.30;99.90;;;;;;5052237;28;19912;-83
2022/09/07 11:13:07;;;;;;;;;;;18.30;99.90;;;;;;5049998;28;20007;-74
2022/09/07 11:15:38;;;;;;;;;;;18.10;99.90;;;;;;5047785;28;20055;-84
2022/09/07 11:18:13;;;;;;;;;;;18.20;99.90;;;;;;5068739;28;20003;-74
2022/09/07 11:20:43;;;;;;;;;;;18.10;99.90;;;;;;5044119;28;19981;-85
2022/09/07 11:23:19;;;;;;;;;;;18.00;99.90;;;;;;5040906;28;20002;-75
2022/09/07 11:26:03;;;;;;;;;;;17.90;99.90;;;;;;5048306;28;19908;-85
2022/09/07 11:28:47;;;;;;;;;;;18.00;99.90;;;;;;5055172;28;19956;-75
2022/09/07 11:31:18;;;;;;;;;;;18.00;99.90;;;;;;5047060;28;20399;-84
2022/09/07 11:33:47;;;;;;;;;;;18.20;99.90;;;;;;5066932;28;19909;-84
2022/09/07 11:36:14;;;;;;;;;;;18.30;99.90;;;;;;5064980;28;19916;-75
2022/09/07 11:38:46;;;;;;;;;;;18.30;99.90;;;;;;5054397;28;19909;-84
2022/09/07 11:41:11;;;;;;;;;;;18.40;99.90;;;;;;5058214;28;19909;-83
2022/09/07 11:43:40;;;;;;;;;;;18.40;99.90;;;;;;5060845;28;19916;-74
2022/09/07 11:46:11;;;;;;;;;;;18.30;99.90;;;;;;5064383;28;19920;-74
2022/09/07 11:48:51;;;;;;;;;;;18.40;99.90;;;;;;5067151;28;19931;-82
2022/09/07 11:51:20;;;;;;;;;;;18.30;99.90;;;;;;5052803;28;19917;-81
2022/09/07 11:53:49;;;;;;;;;;;18.10;99.90;;;;;;5060341;28;19916;-82
2022/09/07 11:56:25;;;;;;;;;;;18.20;99.90;;;;;;5069312;28;19912;-74
2022/09/07 11:58:50;;;;;;;;;;;18.20;99.90;;;;;;5059354;28;20398;-81
2022/09/07 12:01:45;;;;;;;;;;;18.10;99.90;;;;;;5057695;28;19913;-80
2022/09/07 12:04:29;;;;;;;;;;;18.30;99.90;;;;;;5058120;28;19913;-82
2022/09/07 12:07:13;;;;;;;;;;;18.40;99.90;;;;;;5060169;28;19913;-81
2022/09/07 12:09:54;;;;;;;;;;;18.30;99.90;;;;;;5054922;28;20331;-74
2022/09/07 12:12:41;;;;;;;;;;;18.20;99.90;;;;;;5050405;28;19917;-74
2022/09/07 12:15:32;;;;;;;;;;;18.30;99.90;;;;;;5056397;28;19912;-73
2022/09/07 12:18:16;;;;;;;;;;;18.30;99.90;;;;;;5054877;28;19919;-80
2022/09/07 12:20:45;;;;;;;;;;;18.40;99.90;;;;;;5052271;28;20334;-80
2022/09/07 12:23:16;;;;;;;;;;;18.50;99.90;;;;;;5053511;28;20313;-73
2022/09/07 12:25:43;;;;;;;;;;;18.40;99.90;;;;;;5050616;28;19947;-73
2022/09/07 12:28:18;;;;;;;;;;;18.30;99.90;;;;;;5051253;28;19917;-84
2022/09/07 12:30:51;;;;;;;;;;;18.10;99.90;;;;;;5060383;28;19913;-84
2022/09/07 12:33:25;;;;;;;;;;;18.00;99.90;;;;;;5054858;28;19956;-84
2022/09/07 12:35:50;;;;;;;;;;;18.00;99.90;;;;;;5050030;28;19912;-80
2022/09/07 12:38:15;;;;;;;;;;;18.20;99.90;;;;;;5049652;28;20438;-74
2022/09/07 12:41:01;;;;;;;;;;;18.20;99.90;;;;;;5050940;28;19913;-74
2022/09/07 12:43:26;;;;;;;;;;;18.20;99.90;;;;;;5057363;28;20375;-73
2022/09/07 12:45:53;;;;;;;;;;;18.20;99.90;;;;;;5059050;28;19908;-73
2022/09/07 12:48:19;;;;;;;;;;;18.40;99.90;;;;;;5060460;28;19962;-74
2022/09/07 12:50:57;;;;;;;;;;;18.30;99.90;;;;;;5058652;28;19917;-73
2022/09/07 12:53:27;;;;;;;;;;;18.40;99.90;;;;;;5057015;28;19917;-83
2022/09/07 12:55:53;;;;;;;;;;;18.30;99.90;;;;;;5069804;28;20410;-83
2022/09/07 12:58:18;;;;;;;;;;;18.40;99.90;;;;;;5062687;28;19919;-74
2022/09/07 13:00:44;;;;;;;;;;;18.40;99.90;;;;;;5043985;28;20360;-74
2022/09/07 13:03:18;;;;;;;;;;;18.40;99.90;;;;;;5039520;28;19925;-73
2022/09/07 13:06:03;;;;;;;;;;;18.40;99.90;;;;;;5042998;28;19999;-81
2022/09/07 13:08:28;;;;;;;;;;;18.50;99.90;;;;;;5053853;28;19913;-80
2022/09/07 13:10:53;;;;;;;;;;;18.40;99.90;;;;;;5052081;28;19915;-72
2022/09/07 13:13:22;;;;;;;;;;;18.30;99.90;;;;;;5055461;28;20397;-73
2022/09/07 13:15:49;;;;;;;;;;;18.20;99.90;;;;;;5044737;28;19912;-72
2022/09/07 13:18:24;;;;;;;;;;;18.30;99.90;;;;;;5048762;28;20372;-73
2022/09/07 13:21:05;;;;;;;;;;;18.20;99.90;;;;;;5043418;28;19909;-81
2022/09/07 13:23:31;;;;;;;;;;;18.30;99.90;;;;;;5061897;28;19909;-72
2022/09/07 13:25:58;;;;;;;;;;;18.20;99.90;;;;;;5060365;28;20291;-73
2022/09/07 13:28:43;;;;;;;;;;;18.00;99.90;;;;;;5052473;28;20431;-73
2022/09/07 13:31:15;;;;;;;;;;;17.90;99.90;;;;;;5056925;28;19927;-81
2022/09/07 13:33:43;;;;;;;;;;;18.00;99.90;;;;;;5053835;28;19909;-73
2022/09/07 13:36:20;;;;;;;;;;;18.00;99.90;;;;;;5053017;28;19919;-81
2022/09/07 13:38:47;;;;;;;;;;;18.00;99.90;;;;;;5047887;28;19913;-72
2022/09/07 13:41:14;;;;;;;;;;;17.90;99.90;;;;;;5048642;28;19923;-72
2022/09/07 13:43:45;;;;;;;;;;;17.90;99.90;;;;;;5048240;28;20280;-73
2022/09/07 13:46:16;;;;;;;;;;;17.80;99.90;;;;;;5050586;28;19939;-84
2022/09/07 13:48:49;;;;;;;;;;;17.70;99.90;;;;;;5050284;28;19999;-84
2022/09/07 13:51:22;;;;;;;;;;;17.70;99.90;;;;;;5049206;28;19917;-83
2022/09/07 13:53:48;;;;;;;;;;;17.50;99.90;;;;;;5049670;28;19913;-74
2022/09/07 13:56:19;;;;;;;;;;;17.50;99.90;;;;;;5052637;28;20015;-73
2022/09/07 13:58:46;;;;;;;;;;;17.60;99.90;;;;;;5050689;28;19916;-80
2022/09/07 14:01:20;;;;;;;;;;;17.60;99.90;;;;;;5051981;28;20368;-80
2022/09/07 14:03:48;;;;;;;;;;;17.70;99.90;;;;;;5042768;28;19909;-81
2022/09/07 14:06:19;;;;;;;;;;;18.00;99.90;;;;;;5049366;28;19916;-73
2022/09/07 14:08:55;;;;;;;;;;;17.80;99.90;;;;;;5047298;28;19974;-73
2022/09/07 14:11:22;;;;;;;;;;;17.70;99.90;;;;;;5048315;28;19924;-80
2022/09/07 14:14:06;;;;;;;;;;;17.60;99.90;;;;;;5052365;28;19934;-79
2022/09/07 14:16:32;;;;;;;;;;;17.50;99.90;;;;;;5045243;28;19909;-80
2022/09/07 14:18:57;;;;;;;;;;;17.50;99.90;;;;;;5051876;28;19996;-74
2022/09/07 14:21:23;;;;;;;;;;;17.50;99.90;;;;;;5043856;28;19924;-73
2022/09/07 14:23:49;;;;;;;;;;;17.40;99.90;;;;;;5039875;28;19913;-79
2022/09/07 14:26:21;;;;;;;;;;;17.30;99.90;;;;;;5072321;28;19938;-80